sensor_id;sensor_type;location;lat;lon;timestamp;pressure;altitude;pressure_sealevel;temperature;humidity
25947;BME280;13745;51.470;9.894;2022-12-07T00:01:32;99326.25;;;4.99;69.92
25947;BME280;13745;51.470;9.894;2022-12-07T00:04:19;99314.72;;;4.99;69.91
25947;BME280;13745;51.470;9.894;2022-12-07T00:07:05;99308.28;;;5.00;69.99
25947;BME280;13745;51.470;9.894;2022-12-07T00:09:51;99309.66;;;5.02;69.98
25947;BME280;13745;51.470;9.894;2022-12-07T00:12:36;99316.66;;;5.03;69.99
25947;BME280;13745;51.470;9.894;2022-12-07T00:15:22;99304.31;;;5.07;69.93
25947;BME280;13745;51.470;9.894;2022-12-07T00:18:08;99304.31;;;5.12;69.90
25947;BME280;13745;51.470;9.894;2022-12-07T00:21:00;99296.84;;;5.14;69.87
25947;BME280;13745;51.470;9.894;2022-12-07T00:23:48;99301.91;;;5.11;69.80
25947;BME280;13745;51.470;9.894;2022-12-07T00:26:35;99305.72;;;5.14;69.91
25947;BME280;13745;51.470;9.894;2022-12-07T00:29:22;99300.88;;;5.16;69.93
25947;BME280;13745;51.470;9.894;2022-12-07T00:32:08;99303.28;;;5.18;69.99
25947;BME280;13745;51.470;9.894;2022-12-07T00:34:54;99301.69;;;5.22;69.93
25947;BME280;13745;51.470;9.894;2022-12-07T00:37:41;99295.00;;;5.24;69.95
25947;BME280;13745;51.470;9.894;2022-12-07T00:40:27;99288.84;;;5.29;69.91
25947;BME280;13745;51.470;9.894;2022-12-07T00:43:12;99288.31;;;5.32;69.95
25947;BME280;13745;51.470;9.894;2022-12-07T00:45:58;99277.06;;;5.35;69.66
25947;BME280;13745;51.470;9.894;2022-12-07T00:48:45;99274.38;;;5.35;69.63
25947;BME280;13745;51.470;9.894;2022-12-07T00:51:30;99271.69;;;5.35;69.95
25947;BME280;13745;51.470;9.894;2022-12-07T00:54:17;99272.50;;;5.35;69.97
25947;BME280;13745;51.470;9.894;2022-12-07T00:57:03;99256.13;;;5.32;69.93
25947;BME280;13745;51.470;9.894;2022-12-07T00:59:49;99256.91;;;5.32;70.04
25947;BME280;13745;51.470;9.894;2022-12-07T01:02:34;99253.44;;;5.32;70.01
25947;BME280;13745;51.470;9.894;2022-12-07T01:05:20;99266.31;;;5.35;69.98
25947;BME280;13745;51.470;9.894;2022-12-07T01:08:06;99260.41;;;5.33;70.05
25947;BME280;13745;51.470;9.894;2022-12-07T01:10:59;99252.09;;;5.34;70.11
25947;BME280;13745;51.470;9.894;2022-12-07T01:13:48;99238.94;;;5.37;70.04
25947;BME280;13745;51.470;9.894;2022-12-07T01:16:34;99247.00;;;5.37;70.16
25947;BME280;13745;51.470;9.894;2022-12-07T01:19:20;99244.59;;;5.41;70.14
25947;BME280;13745;51.470;9.894;2022-12-07T01:22:06;99237.91;;;5.43;69.98
25947;BME280;13745;51.470;9.894;2022-12-07T01:24:52;99244.88;;;5.44;70.17
25947;BME280;13745;51.470;9.894;2022-12-07T01:27:39;99246.50;;;5.45;70.23
25947;BME280;13745;51.470;9.894;2022-12-07T01:30:24;99238.97;;;5.47;70.09
25947;BME280;13745;51.470;9.894;2022-12-07T01:33:10;99240.59;;;5.48;70.14
25947;BME280;13745;51.470;9.894;2022-12-07T01:36:00;99235.75;;;5.50;70.24
25947;BME280;13745;51.470;9.894;2022-12-07T01:38:48;99237.94;;;5.53;70.34
25947;BME280;13745;51.470;9.894;2022-12-07T01:41:37;99232.56;;;5.53;70.31
25947;BME280;13745;51.470;9.894;2022-12-07T01:44:26;99233.06;;;5.50;70.18
25947;BME280;13745;51.470;9.894;2022-12-07T01:47:14;99232.78;;;5.47;70.51
25947;BME280;13745;51.470;9.894;2022-12-07T01:49:59;99233.06;;;5.45;70.54
25947;BME280;13745;51.470;9.894;2022-12-07T01:52:47;99238.97;;;5.47;70.66
25947;BME280;13745;51.470;9.894;2022-12-07T01:55:34;99240.59;;;5.48;70.44
25947;BME280;13745;51.470;9.894;2022-12-07T01:58:23;99238.44;;;5.50;70.65
25947;BME280;13745;51.470;9.894;2022-12-07T02:01:10;99232.00;;;5.46;70.74
25947;BME280;13745;51.470;9.894;2022-12-07T02:03:57;99240.59;;;5.48;70.75
25947;BME280;13745;51.470;9.894;2022-12-07T02:06:44;99228.78;;;5.49;70.72
25947;BME280;13745;51.470;9.894;2022-12-07T02:09:31;99222.88;;;5.47;70.90
25947;BME280;13745;51.470;9.894;2022-12-07T02:12:16;99224.75;;;5.47;71.18
25947;BME280;13745;51.470;9.894;2022-12-07T02:15:03;99230.66;;;5.49;70.65
25947;BME280;13745;51.470;9.894;2022-12-07T02:17:57;99227.16;;;5.48;71.04
25947;BME280;13745;51.470;9.894;2022-12-07T02:20:53;99230.66;;;5.49;71.23
25947;BME280;13745;51.470;9.894;2022-12-07T02:23:56;99229.31;;;5.46;71.05
25947;BME280;13745;51.470;9.894;2022-12-07T02:27:07;99222.34;;;5.45;71.12
25947;BME280;13745;51.470;9.894;2022-12-07T02:29:58;99214.28;;;5.45;71.00
25947;BME280;13745;51.470;9.894;2022-12-07T02:32:51;99215.88;;;5.46;71.42
25947;BME280;13745;51.470;9.894;2022-12-07T02:35:42;99218.56;;;5.46;71.07
25947;BME280;13745;51.470;9.894;2022-12-07T02:38:32;99210.53;;;5.46;71.26
25947;BME280;13745;51.470;9.894;2022-12-07T02:41:22;99220.44;;;5.46;71.31
25947;BME280;13745;51.470;9.894;2022-12-07T02:44:11;99212.94;;;5.48;71.09
25947;BME280;13745;51.470;9.894;2022-12-07T02:47:03;99205.41;;;5.50;71.16
25947;BME280;13745;51.470;9.894;2022-12-07T02:49:51;99207.88;;;5.51;71.22
25947;BME280;13745;51.470;9.894;2022-12-07T02:52:37;99210.53;;;5.51;71.30
25947;BME280;13745;51.470;9.894;2022-12-07T02:55:26;99213.22;;;5.51;71.41
25947;BME280;13745;51.470;9.894;2022-12-07T02:58:25;99209.47;;;5.52;71.43
25947;BME280;13745;51.470;9.894;2022-12-07T03:01:23;99216.44;;;5.53;71.23
25947;BME280;13745;51.470;9.894;2022-12-07T03:04:20;99206.53;;;5.54;71.16
25947;BME280;13745;51.470;9.894;2022-12-07T03:07:17;99203.03;;;5.53;71.43
25947;BME280;13745;51.470;9.894;2022-12-07T03:10:09;99198.72;;;5.52;71.49
25947;BME280;13745;51.470;9.894;2022-12-07T03:13:04;99198.72;;;5.52;71.64
25947;BME280;13745;51.470;9.894;2022-12-07T03:15:54;99197.66;;;5.53;71.58
25947;BME280;13745;51.470;9.894;2022-12-07T03:18:46;99195.78;;;5.54;71.71
25947;BME280;13745;51.470;9.894;2022-12-07T03:21:37;99198.19;;;5.55;71.51
25947;BME280;13745;51.470;9.894;2022-12-07T03:24:27;99188.00;;;5.57;71.60
25947;BME280;13745;51.470;9.894;2022-12-07T03:27:23;99196.03;;;5.57;71.70
25947;BME280;13745;51.470;9.894;2022-12-07T03:30:13;99197.66;;;5.58;71.68
25947;BME280;13745;51.470;9.894;2022-12-07T03:33:03;99189.31;;;5.59;71.79
25947;BME280;13745;51.470;9.894;2022-12-07T03:35:56;99188.78;;;5.62;71.54
25947;BME280;13745;51.470;9.894;2022-12-07T03:38:49;99191.22;;;5.64;71.65
25947;BME280;13745;51.470;9.894;2022-12-07T03:41:37;99189.59;;;5.63;71.72
25947;BME280;13745;51.470;9.894;2022-12-07T03:44:23;99191.22;;;5.64;71.72
25947;BME280;13745;51.470;9.894;2022-12-07T03:47:13;99189.59;;;5.63;71.67
25947;BME280;13745;51.470;9.894;2022-12-07T03:50:06;99177.25;;;5.62;71.68
25947;BME280;13745;51.470;9.894;2022-12-07T03:52:56;99190.13;;;5.60;71.91
25947;BME280;13745;51.470;9.894;2022-12-07T03:55:46;99190.44;;;5.63;71.78
25947;BME280;13745;51.470;9.894;2022-12-07T03:58:34;99188.53;;;5.64;72.00
25947;BME280;13745;51.470;9.894;2022-12-07T04:01:20;99182.63;;;5.67;71.96
25947;BME280;13745;51.470;9.894;2022-12-07T04:04:06;99193.94;;;5.69;71.97
25947;BME280;13745;51.470;9.894;2022-12-07T04:06:51;99190.19;;;5.70;71.96
25947;BME280;13745;51.470;9.894;2022-12-07T04:09:37;99189.91;;;5.71;71.93
25947;BME280;13745;51.470;9.894;2022-12-07T04:12:24;99189.63;;;5.73;71.95
25947;BME280;13745;51.470;9.894;2022-12-07T04:15:11;99180.78;;;5.72;72.00
25947;BME280;13745;51.470;9.894;2022-12-07T04:17:56;99185.88;;;5.74;71.91
25947;BME280;13745;51.470;9.894;2022-12-07T04:20:42;99191.78;;;5.76;72.07
25947;BME280;13745;51.470;9.894;2022-12-07T04:23:28;99190.44;;;5.78;72.44
25947;BME280;13745;51.470;9.894;2022-12-07T04:26:14;99190.19;;;5.80;71.98
25947;BME280;13745;51.470;9.894;2022-12-07T04:29:01;99186.94;;;5.82;72.28
25947;BME280;13745;51.470;9.894;2022-12-07T04:31:47;99190.69;;;5.86;72.08
25947;BME280;13745;51.470;9.894;2022-12-07T04:34:33;99185.34;;;5.86;72.02
25947;BME280;13745;51.470;9.894;2022-12-07T04:37:19;99193.38;;;5.86;71.96
25947;BME280;13745;51.470;9.894;2022-12-07T04:40:06;99191.00;;;5.90;71.95
25947;BME280;13745;51.470;9.894;2022-12-07T04:42:52;99193.41;;;5.91;72.01
25947;BME280;13745;51.470;9.894;2022-12-07T04:45:45;99187.47;;;5.84;71.82
25947;BME280;13745;51.470;9.894;2022-12-07T04:48:31;99192.88;;;5.80;72.14
25947;BME280;13745;51.470;9.894;2022-12-07T04:51:19;99189.09;;;5.76;72.35
25947;BME280;13745;51.470;9.894;2022-12-07T04:54:06;99189.66;;;5.78;72.39
25947;BME280;13745;51.470;9.894;2022-12-07T04:56:52;99185.09;;;5.78;72.17
25947;BME280;13745;51.470;9.894;2022-12-07T04:59:37;99187.47;;;5.75;72.04
25947;BME280;13745;51.470;9.894;2022-12-07T05:02:24;99186.66;;;5.74;72.06
25947;BME280;13745;51.470;9.894;2022-12-07T05:05:10;99193.41;;;5.77;72.30
25947;BME280;13745;51.470;9.894;2022-12-07T05:07:56;99192.59;;;5.81;72.29
25947;BME280;13745;51.470;9.894;2022-12-07T05:10:42;99190.19;;;5.80;72.29
25947;BME280;13745;51.470;9.894;2022-12-07T05:13:28;99196.59;;;5.74;72.39
25947;BME280;13745;51.470;9.894;2022-12-07T05:16:13;99193.41;;;5.72;72.47
25947;BME280;13745;51.470;9.894;2022-12-07T05:19:00;99193.94;;;5.74;72.03
25947;BME280;13745;51.470;9.894;2022-12-07T05:21:47;99191.25;;;5.74;72.38
25947;BME280;13745;51.470;9.894;2022-12-07T05:24:32;99179.97;;;5.72;72.59
25947;BME280;13745;51.470;9.894;2022-12-07T05:27:18;99184.00;;;5.74;72.24
25947;BME280;13745;51.470;9.894;2022-12-07T05:30:05;99182.91;;;5.75;72.49
25947;BME280;13745;51.470;9.894;2022-12-07T05:32:51;99171.38;;;5.75;72.51
25947;BME280;13745;51.470;9.894;2022-12-07T05:35:38;99171.38;;;5.75;72.12
25947;BME280;13745;51.470;9.894;2022-12-07T05:38:24;99181.31;;;5.74;72.28
25947;BME280;13745;51.470;9.894;2022-12-07T05:41:13;99176.75;;;5.70;72.49
25947;BME280;13745;51.470;9.894;2022-12-07T05:44:14;99162.53;;;5.69;72.58
25947;BME280;13745;51.470;9.894;2022-12-07T05:46:59;99167.88;;;5.69;72.38
25947;BME280;13745;51.470;9.894;2022-12-07T05:49:45;99166.00;;;5.65;72.66
25947;BME280;13745;51.470;9.894;2022-12-07T05:52:32;99175.63;;;5.61;72.46
25947;BME280;13745;51.470;9.894;2022-12-07T05:55:18;99167.03;;;5.59;72.48
25947;BME280;13745;51.470;9.894;2022-12-07T05:58:04;99161.16;;;5.57;72.52
25947;BME280;13745;51.470;9.894;2022-12-07T06:01:07;99169.19;;;5.57;72.29
25947;BME280;13745;51.470;9.894;2022-12-07T06:03:52;99170.81;;;5.53;72.33
25947;BME280;13745;51.470;9.894;2022-12-07T06:06:38;99169.75;;;5.54;72.25
25947;BME280;13745;51.470;9.894;2022-12-07T06:09:27;99165.44;;;5.58;72.59
25947;BME280;13745;51.470;9.894;2022-12-07T06:12:13;99164.38;;;5.59;72.35
25947;BME280;13745;51.470;9.894;2022-12-07T06:15:17;99162.22;;;5.56;72.49
25947;BME280;13745;51.470;9.894;2022-12-07T06:18:03;99154.16;;;5.56;72.58
25947;BME280;13745;51.470;9.894;2022-12-07T06:20:49;99160.63;;;5.55;72.48
25947;BME280;13745;51.470;9.894;2022-12-07T06:23:35;99157.66;;;5.57;72.51
25947;BME280;13745;51.470;9.894;2022-12-07T06:26:22;99166.25;;;5.58;72.40
25947;BME280;13745;51.470;9.894;2022-12-07T06:29:08;99160.63;;;5.55;72.57
25947;BME280;13745;51.470;9.894;2022-12-07T06:31:54;99164.38;;;5.54;72.36
25947;BME280;13745;51.470;9.894;2022-12-07T06:34:39;99165.44;;;5.53;72.62
25947;BME280;13745;51.470;9.894;2022-12-07T06:37:25;99164.91;;;5.51;72.56
25947;BME280;13745;51.470;9.894;2022-12-07T06:40:11;99172.13;;;5.51;72.71
25947;BME280;13745;51.470;9.894;2022-12-07T06:42:58;99175.91;;;5.50;72.48
25947;BME280;13745;51.470;9.894;2022-12-07T06:45:44;99176.97;;;5.49;72.75
25947;BME280;13745;51.470;9.894;2022-12-07T06:48:30;99170.53;;;5.50;72.56
25947;BME280;13745;51.470;9.894;2022-12-07T06:51:16;99179.13;;;5.52;72.67
25947;BME280;13745;51.470;9.894;2022-12-07T06:54:02;99183.72;;;5.51;72.49
25947;BME280;13745;51.470;9.894;2022-12-07T06:56:48;99184.22;;;5.58;72.37
25947;BME280;13745;51.470;9.894;2022-12-07T06:59:35;99189.88;;;5.61;72.33
25947;BME280;13745;51.470;9.894;2022-12-07T07:02:21;99195.53;;;5.70;72.22
25947;BME280;13745;51.470;9.894;2022-12-07T07:05:07;99190.44;;;5.73;72.05
25947;BME280;13745;51.470;9.894;2022-12-07T07:07:53;99197.72;;;5.78;72.10
25947;BME280;13745;51.470;9.894;2022-12-07T07:10:38;99191.78;;;5.81;71.83
25947;BME280;13745;51.470;9.894;2022-12-07T07:13:24;99188.28;;;5.85;72.18
25947;BME280;13745;51.470;9.894;2022-12-07T07:16:12;99185.34;;;5.86;72.07
25947;BME280;13745;51.470;9.894;2022-12-07T07:18:58;99188.53;;;5.88;71.81
25947;BME280;13745;51.470;9.894;2022-12-07T07:21:43;99195.00;;;5.92;72.07
25947;BME280;13745;51.470;9.894;2022-12-07T07:24:29;99194.19;;;5.97;71.85
25947;BME280;13745;51.470;9.894;2022-12-07T07:27:15;99187.75;;;5.98;71.93
25947;BME280;13745;51.470;9.894;2022-12-07T07:30:01;99190.72;;;6.01;71.95
25947;BME280;13745;51.470;9.894;2022-12-07T07:32:48;99190.16;;;6.04;71.69
25947;BME280;13745;51.470;9.894;2022-12-07T07:35:34;99185.06;;;6.07;71.88
25947;BME280;13745;51.470;9.894;2022-12-07T07:38:20;99193.38;;;6.11;71.58
25947;BME280;13745;51.470;9.894;2022-12-07T07:41:06;99194.16;;;6.11;71.89
25947;BME280;13745;51.470;9.894;2022-12-07T07:43:51;99192.28;;;6.12;71.30
25947;BME280;13745;51.470;9.894;2022-12-07T07:46:37;99194.97;;;6.12;71.87
25947;BME280;13745;51.470;9.894;2022-12-07T07:49:25;99198.47;;;6.12;71.49
25947;BME280;13745;51.470;9.894;2022-12-07T07:52:11;99193.91;;;6.13;71.46
25947;BME280;13745;51.470;9.894;2022-12-07T07:54:57;99196.06;;;6.16;71.56
25947;BME280;13745;51.470;9.894;2022-12-07T07:57:42;99192.28;;;6.22;71.38
25947;BME280;13745;51.470;9.894;2022-12-07T08:00:28;99200.06;;;6.28;71.49
25947;BME280;13745;51.470;9.894;2022-12-07T08:03:14;99206.78;;;6.40;71.34
25947;BME280;13745;51.470;9.894;2022-12-07T08:06:01;99205.13;;;6.54;71.10
25947;BME280;13745;51.470;9.894;2022-12-07T08:08:47;99209.41;;;6.60;71.06
25947;BME280;13745;51.470;9.894;2022-12-07T08:11:32;99207.78;;;6.59;70.69
25947;BME280;13745;51.470;9.894;2022-12-07T08:14:18;99209.66;;;6.63;70.95
25947;BME280;13745;51.470;9.894;2022-12-07T08:17:04;99208.31;;;6.61;70.66
25947;BME280;13745;51.470;9.894;2022-12-07T08:19:50;99213.16;;;6.59;71.03
25947;BME280;13745;51.470;9.894;2022-12-07T08:22:37;99215.06;;;6.53;70.56
25947;BME280;13745;51.470;9.894;2022-12-07T08:25:23;99218.56;;;6.49;70.47
25947;BME280;13745;51.470;9.894;2022-12-07T08:28:09;99229.31;;;6.49;70.59
25947;BME280;13745;51.470;9.894;2022-12-07T08:30:58;99222.31;;;6.48;70.43
25947;BME280;13745;51.470;9.894;2022-12-07T08:33:45;99212.38;;;6.48;70.74
25947;BME280;13745;51.470;9.894;2022-12-07T08:36:31;99209.97;;;6.52;70.44
25947;BME280;13745;51.470;9.894;2022-12-07T08:39:18;99210.22;;;6.55;70.81
25947;BME280;13745;51.470;9.894;2022-12-07T08:42:04;99212.09;;;6.55;70.24
25947;BME280;13745;51.470;9.894;2022-12-07T08:44:50;99218.00;;;6.57;70.13
25947;BME280;13745;51.470;9.894;2022-12-07T08:47:38;99224.94;;;6.72;70.36
25947;BME280;13745;51.470;9.894;2022-12-07T08:50:26;99220.03;;;6.94;69.71
25947;BME280;13745;51.470;9.894;2022-12-07T08:53:12;99212.91;;;7.22;69.22
25947;BME280;13745;51.470;9.894;2022-12-07T08:55:59;99227.88;;;7.43;68.93
25947;BME280;13745;51.470;9.894;2022-12-07T08:58:45;99222.94;;;7.55;68.73
25947;BME280;13745;51.470;9.894;2022-12-07T09:01:31;99226.47;;;7.50;68.58
25947;BME280;13745;51.470;9.894;2022-12-07T09:04:17;99217.16;;;7.33;69.10
25947;BME280;13745;51.470;9.894;2022-12-07T09:07:03;99216.66;;;7.26;68.83
25947;BME280;13745;51.470;9.894;2022-12-07T09:09:49;99223.13;;;7.20;69.36
25947;BME280;13745;51.470;9.894;2022-12-07T09:12:36;99225.59;;;7.17;68.77
25947;BME280;13745;51.470;9.894;2022-12-07T09:15:22;99216.94;;;7.20;69.00
25947;BME280;13745;51.470;9.894;2022-12-07T09:18:08;99215.44;;;7.47;68.53
25947;BME280;13745;51.470;9.894;2022-12-07T09:20:54;99212.63;;;7.99;67.87
25947;BME280;13745;51.470;9.894;2022-12-07T09:23:41;99213.81;;;8.49;66.48
25947;BME280;13745;51.470;9.894;2022-12-07T09:26:27;99211.63;;;8.51;66.47
25947;BME280;13745;51.470;9.894;2022-12-07T09:29:14;99221.59;;;8.78;65.98
25947;BME280;13745;51.470;9.894;2022-12-07T09:32:00;99222.94;;;11.15;61.11
25947;BME280;13745;51.470;9.894;2022-12-07T09:34:45;99227.31;;;11.11;60.96
25947;BME280;13745;51.470;9.894;2022-12-07T09:37:31;99224.22;;;10.91;61.04
25947;BME280;13745;51.470;9.894;2022-12-07T09:40:21;99223.31;;;10.69;61.58
25947;BME280;13745;51.470;9.894;2022-12-07T09:43:12;99222.50;;;10.68;62.12
25947;BME280;13745;51.470;9.894;2022-12-07T09:46:01;99226.91;;;12.56;58.83
25947;BME280;13745;51.470;9.894;2022-12-07T09:48:48;99227.91;;;12.90;58.79
25947;BME280;13745;51.470;9.894;2022-12-07T09:51:34;99223.78;;;12.41;59.84
25947;BME280;13745;51.470;9.894;2022-12-07T09:54:20;99222.97;;;13.46;58.95
25947;BME280;13745;51.470;9.894;2022-12-07T09:57:07;99226.28;;;13.98;57.11
25947;BME280;13745;51.470;9.894;2022-12-07T09:59:54;99229.22;;;15.25;54.44
25947;BME280;13745;51.470;9.894;2022-12-07T10:02:42;99232.97;;;17.13;49.85
25947;BME280;13745;51.470;9.894;2022-12-07T10:05:32;99218.53;;;16.81;49.99
25947;BME280;13745;51.470;9.894;2022-12-07T10:08:21;99209.03;;;15.74;51.17
25947;BME280;13745;51.470;9.894;2022-12-07T10:11:07;99215.75;;;15.57;51.20
25947;BME280;13745;51.470;9.894;2022-12-07T10:13:54;99211.41;;;15.56;51.31
25947;BME280;13745;51.470;9.894;2022-12-07T10:16:41;99218.22;;;18.11;46.61
25947;BME280;13745;51.470;9.894;2022-12-07T10:19:30;99207.13;;;19.95;43.48
25947;BME280;13745;51.470;9.894;2022-12-07T10:22:16;99202.88;;;20.34;42.72
25947;BME280;13745;51.470;9.894;2022-12-07T10:25:09;99204.00;;;19.17;43.99
25947;BME280;13745;51.470;9.894;2022-12-07T10:28:16;99203.78;;;16.61;47.34
25947;BME280;13745;51.470;9.894;2022-12-07T10:31:15;99211.75;;;14.73;50.54
25947;BME280;13745;51.470;9.894;2022-12-07T10:34:02;99206.63;;;13.30;53.28
25947;BME280;13745;51.470;9.894;2022-12-07T10:36:49;99199.69;;;12.26;55.02
25947;BME280;13745;51.470;9.894;2022-12-07T10:39:41;99198.63;;;12.27;55.28
25947;BME280;13745;51.470;9.894;2022-12-07T10:42:29;99204.19;;;15.31;50.82
25947;BME280;13745;51.470;9.894;2022-12-07T10:45:17;99194.13;;;16.12;49.48
25947;BME280;13745;51.470;9.894;2022-12-07T10:48:06;99195.19;;;17.77;46.47
25947;BME280;13745;51.470;9.894;2022-12-07T10:51:02;99204.38;;;18.46;45.79
25947;BME280;13745;51.470;9.894;2022-12-07T10:54:04;99194.22;;;18.47;46.04
25947;BME280;13745;51.470;9.894;2022-12-07T10:57:08;99202.50;;;19.04;45.21
25947;BME280;13745;51.470;9.894;2022-12-07T11:00:08;99201.09;;;21.01;42.24
25947;BME280;13745;51.470;9.894;2022-12-07T11:03:07;99201.56;;;20.84;41.81
25947;BME280;13745;51.470;9.894;2022-12-07T11:06:15;99199.28;;;20.67;41.94
25947;BME280;13745;51.470;9.894;2022-12-07T11:09:22;99195.44;;;20.53;41.72
25947;BME280;13745;51.470;9.894;2022-12-07T11:12:16;99183.25;;;20.36;42.40
25947;BME280;13745;51.470;9.894;2022-12-07T11:15:13;99184.63;;;18.68;44.20
25947;BME280;13745;51.470;9.894;2022-12-07T11:18:06;99181.13;;;17.28;45.51
25947;BME280;13745;51.470;9.894;2022-12-07T11:21:04;99183.09;;;16.09;47.08
25947;BME280;13745;51.470;9.894;2022-12-07T11:23:56;99189.97;;;15.46;47.55
25947;BME280;13745;51.470;9.894;2022-12-07T11:27:04;99183.09;;;15.12;47.56
25947;BME280;13745;51.470;9.894;2022-12-07T11:30:11;99171.34;;;13.80;49.38
25947;BME280;13745;51.470;9.894;2022-12-07T11:33:08;99163.66;;;12.64;50.92
25947;BME280;13745;51.470;9.894;2022-12-07T11:36:04;99164.81;;;12.11;51.73
25947;BME280;13745;51.470;9.894;2022-12-07T11:38:58;99164.13;;;11.85;51.94
25947;BME280;13745;51.470;9.894;2022-12-07T11:41:48;99160.84;;;11.53;52.36
25947;BME280;13745;51.470;9.894;2022-12-07T11:44:40;99170.91;;;11.39;52.01
25947;BME280;13745;51.470;9.894;2022-12-07T11:47:35;99168.19;;;11.26;52.35
25947;BME280;13745;51.470;9.894;2022-12-07T11:50:27;99164.81;;;11.07;52.91
25947;BME280;13745;51.470;9.894;2022-12-07T11:53:17;99164.03;;;10.94;53.12
25947;BME280;13745;51.470;9.894;2022-12-07T11:56:09;99161.03;;;10.69;53.65
25947;BME280;13745;51.470;9.894;2022-12-07T11:59:00;99162.28;;;10.31;53.60
25947;BME280;13745;51.470;9.894;2022-12-07T12:01:53;99160.50;;;9.96;54.52
25947;BME280;13745;51.470;9.894;2022-12-07T12:04:54;99156.41;;;9.62;55.22
25947;BME280;13745;51.470;9.894;2022-12-07T12:07:41;99158.69;;;9.37;55.54
25947;BME280;13745;51.470;9.894;2022-12-07T12:10:37;99150.38;;;9.16;56.00
25947;BME280;13745;51.470;9.894;2022-12-07T12:13:52;99155.81;;;8.93;56.53
25947;BME280;13745;51.470;9.894;2022-12-07T12:16:48;99158.19;;;8.76;56.89
25947;BME280;13745;51.470;9.894;2022-12-07T12:19:42;99149.72;;;8.64;56.72
25947;BME280;13745;51.470;9.894;2022-12-07T12:22:35;99152.97;;;8.61;57.05
25947;BME280;13745;51.470;9.894;2022-12-07T12:25:24;99150.78;;;8.63;57.24
25947;BME280;13745;51.470;9.894;2022-12-07T12:28:22;99143.22;;;8.65;57.40
25947;BME280;13745;51.470;9.894;2022-12-07T12:31:13;99138.25;;;8.72;57.28
25947;BME280;13745;51.470;9.894;2022-12-07T12:34:00;99129.75;;;8.65;57.45
25947;BME280;13745;51.470;9.894;2022-12-07T12:36:48;99130.94;;;8.54;57.92
25947;BME280;13745;51.470;9.894;2022-12-07T12:39:34;99133.75;;;8.68;57.31
25947;BME280;13745;51.470;9.894;2022-12-07T12:42:20;99133.09;;;8.75;57.41
25947;BME280;13745;51.470;9.894;2022-12-07T12:45:20;99132.28;;;8.75;57.41
25947;BME280;13745;51.470;9.894;2022-12-07T12:48:29;99130.88;;;8.59;57.71
25947;BME280;13745;51.470;9.894;2022-12-07T12:51:36;99125.38;;;8.46;57.82
25947;BME280;13745;51.470;9.894;2022-12-07T12:54:25;99128.66;;;8.43;58.07
25947;BME280;13745;51.470;9.894;2022-12-07T12:57:15;99119.16;;;8.46;57.81
25947;BME280;13745;51.470;9.894;2022-12-07T13:00:14;99126.06;;;8.56;57.91
25947;BME280;13745;51.470;9.894;2022-12-07T13:03:01;99126.75;;;8.67;57.48
25947;BME280;13745;51.470;9.894;2022-12-07T13:05:47;99114.97;;;8.58;57.71
25947;BME280;13745;51.470;9.894;2022-12-07T13:08:34;99108.38;;;8.46;58.07
25947;BME280;13745;51.470;9.894;2022-12-07T13:11:29;99116.47;;;8.46;58.27
25947;BME280;13745;51.470;9.894;2022-12-07T13:14:53;99110.06;;;8.42;58.31
25947;BME280;13745;51.470;9.894;2022-12-07T13:18:00;99109.00;;;8.38;58.26
25947;BME280;13745;51.470;9.894;2022-12-07T13:20:51;99102.00;;;8.37;58.22
25947;BME280;13745;51.470;9.894;2022-12-07T13:23:39;99109.59;;;8.35;58.36
25947;BME280;13745;51.470;9.894;2022-12-07T13:26:42;99093.91;;;8.37;58.63
25947;BME280;13745;51.470;9.894;2022-12-07T13:29:36;99103.56;;;8.43;58.28
25947;BME280;13745;51.470;9.894;2022-12-07T13:32:24;99098.69;;;8.45;58.57
25947;BME280;13745;51.470;9.894;2022-12-07T13:35:28;99104.19;;;8.35;58.41
25947;BME280;13745;51.470;9.894;2022-12-07T13:38:23;99094.59;;;8.24;58.90
25947;BME280;13745;51.470;9.894;2022-12-07T13:41:15;99096.84;;;8.17;58.92
25947;BME280;13745;51.470;9.894;2022-12-07T13:44:08;99093.97;;;8.09;59.10
25947;BME280;13745;51.470;9.894;2022-12-07T13:46:57;99089.44;;;8.05;59.10
25947;BME280;13745;51.470;9.894;2022-12-07T13:49:48;99104.53;;;8.05;58.95
25947;BME280;13745;51.470;9.894;2022-12-07T13:52:43;99101.03;;;8.00;59.18
25947;BME280;13745;51.470;9.894;2022-12-07T13:55:29;99092.72;;;7.97;59.65
25947;BME280;13745;51.470;9.894;2022-12-07T13:58:15;99104.38;;;7.92;59.21
25947;BME280;13745;51.470;9.894;2022-12-07T14:01:03;99099.56;;;7.89;59.04
25947;BME280;13745;51.470;9.894;2022-12-07T14:03:50;99096.09;;;7.84;59.77
25947;BME280;13745;51.470;9.894;2022-12-07T14:06:36;99095.06;;;7.80;59.67
25947;BME280;13745;51.470;9.894;2022-12-07T14:09:23;99090.78;;;7.74;59.95
25947;BME280;13745;51.470;9.894;2022-12-07T14:12:09;99089.25;;;7.63;59.92
25947;BME280;13745;51.470;9.894;2022-12-07T14:14:58;99086.63;;;7.59;60.10
25947;BME280;13745;51.470;9.894;2022-12-07T14:17:51;99084.53;;;7.51;60.57
25947;BME280;13745;51.470;9.894;2022-12-07T14:20:38;99081.38;;;7.44;59.99
25947;BME280;13745;51.470;9.894;2022-12-07T14:23:25;99081.97;;;7.36;60.11
25947;BME280;13745;51.470;9.894;2022-12-07T14:26:13;99077.16;;;7.33;60.24
25947;BME280;13745;51.470;9.894;2022-12-07T14:32:23;99079.59;;;7.30;60.21
25947;BME280;13745;51.470;9.894;2022-12-07T14:35:15;99071.28;;;7.26;60.34
25947;BME280;13745;51.470;9.894;2022-12-07T14:38:01;99075.03;;;7.25;60.33
25947;BME280;13745;51.470;9.894;2022-12-07T14:40:48;99083.69;;;7.22;60.81
25947;BME280;13745;51.470;9.894;2022-12-07T14:43:34;99072.41;;;7.20;60.71
25947;BME280;13745;51.470;9.894;2022-12-07T14:46:19;99079.16;;;7.18;61.17
25947;BME280;13745;51.470;9.894;2022-12-07T14:49:05;99071.91;;;7.14;60.78
25947;BME280;13745;51.470;9.894;2022-12-07T14:51:52;99072.47;;;7.11;61.35
25947;BME280;13745;51.470;9.894;2022-12-07T14:54:38;99074.63;;;7.09;61.19
25947;BME280;13745;51.470;9.894;2022-12-07T14:57:24;99068.22;;;7.05;61.22
25947;BME280;13745;51.470;9.894;2022-12-07T15:00:14;99070.41;;;7.03;61.61
25947;BME280;13745;51.470;9.894;2022-12-07T15:03:01;99066.91;;;7.02;61.40
25947;BME280;13745;51.470;9.894;2022-12-07T15:05:46;99065.00;;;7.03;61.46
25947;BME280;13745;51.470;9.894;2022-12-07T15:08:34;99070.94;;;7.00;61.75
25947;BME280;13745;51.470;9.894;2022-12-07T15:11:19;99068.53;;;6.98;61.27